Time;durP1;ratioP1;P1;durP2;ratioP2;P2;SDS_P1;SDS_P2;PMS_P1;PMS_P2;Temp;Humidity;BMP_temperature;BMP_pressure;BME280_temperature;BME280_humidity;BME280_pressure;Samples;Min_cycle;Max_cycle;Signal;HPM_P1;HPM_P2
2022/11/14 00:00:48;;;;;;;12.10;5.90;;;;;4.20;98635.00;;;;108820;1271;41215;-61
2022/11/14 00:03:36;;;;;;;14.30;6.20;;;;;4.10;98630.20;;;;108819;1263;41139;-61
2022/11/14 00:06:25;;;;;;;10.20;5.30;;;;;4.10;98634.20;;;;108857;1271;41137;-62
2022/11/14 00:09:13;;;;;;;17.90;5.50;;;;;4.10;98633.60;;;;109007;1270;41174;-62
2022/11/14 00:12:01;;;;;;;10.80;5.40;;;;;4.10;98635.40;;;;108842;1266;41143;-61
2022/11/14 00:14:50;;;;;;;23.10;5.80;;;;;4.08;98636.00;;;;108654;1270;41179;-61
2022/11/14 00:17:38;;;;;;;12.30;4.90;;;;;4.00;98637.80;;;;108774;1271;41152;-61
2022/11/14 00:20:27;;;;;;;9.80;4.30;;;;;4.00;98637.60;;;;108888;1271;41175;-62
2022/11/14 00:23:16;;;;;;;13.70;5.90;;;;;4.00;98637.00;;;;108897;1271;41146;-62
2022/11/14 00:26:05;;;;;;;16.70;5.70;;;;;4.00;98635.60;;;;108894;1271;41747;-62
2022/11/14 00:28:54;;;;;;;9.20;4.10;;;;;4.00;98633.00;;;;108831;1271;41159;-62
2022/11/14 00:31:43;;;;;;;11.30;4.50;;;;;4.00;98628.60;;;;108827;1271;41152;-62
2022/11/14 00:34:33;;;;;;;19.30;5.40;;;;;4.04;98633.60;;;;108737;1269;41896;-62
2022/11/14 00:37:22;;;;;;;11.80;4.90;;;;;4.02;98627.80;;;;108643;1271;41205;-62
2022/11/14 00:40:13;;;;;;;12.30;5.50;;;;;4.00;98623.40;;;;108839;1270;41144;-62
2022/11/14 00:43:02;;;;;;;16.50;5.20;;;;;3.92;98620.80;;;;108917;1271;41356;-62
2022/11/14 00:45:52;;;;;;;10.50;5.30;;;;;3.90;98620.40;;;;108910;1271;41927;-62
2022/11/14 00:48:40;;;;;;;13.80;5.00;;;;;3.90;98624.00;;;;108925;1270;41159;-62
2022/11/14 00:51:28;;;;;;;11.30;5.60;;;;;3.90;98624.00;;;;108808;1266;41235;-62
2022/11/14 00:54:16;;;;;;;11.50;5.30;;;;;3.86;98628.40;;;;108863;1261;41169;-62
2022/11/14 00:57:06;;;;;;;11.30;5.80;;;;;3.80;98632.80;;;;108934;1266;41154;-62
2022/11/14 00:59:55;;;;;;;14.90;5.50;;;;;3.80;98623.60;;;;108897;1271;41246;-62
2022/11/14 01:02:44;;;;;;;21.10;5.80;;;;;3.76;98619.60;;;;108718;1271;41155;-62
2022/11/14 01:05:32;;;;;;;22.20;6.10;;;;;3.70;98610.80;;;;108935;1270;41246;-62
2022/11/14 01:08:21;;;;;;;12.10;4.90;;;;;3.70;98606.40;;;;108974;1270;41174;-62
2022/11/14 01:11:15;;;;;;;10.30;5.10;;;;;3.70;98599.20;;;;108865;1257;42013;-62
2022/11/14 01:14:07;;;;;;;14.70;5.10;;;;;3.70;98602.40;;;;108805;1271;41165;-62
2022/11/14 01:16:56;;;;;;;10.80;5.00;;;;;3.60;98602.00;;;;108930;1270;41908;-62
2022/11/14 01:19:45;;;;;;;11.60;6.30;;;;;3.60;98596.00;;;;108843;1269;41160;-62
2022/11/14 01:22:34;;;;;;;11.60;4.80;;;;;3.50;98601.80;;;;108701;1271;41592;-62
2022/11/14 01:25:22;;;;;;;12.30;4.60;;;;;3.50;98592.80;;;;108889;1268;41142;-62
2022/11/14 01:28:14;;;;;;;10.00;4.70;;;;;3.48;98594.00;;;;108723;1270;41246;-63
2022/11/14 01:31:19;;;;;;;10.10;4.90;;;;;3.46;98593.80;;;;108798;1271;41140;-62
2022/11/14 01:34:09;;;;;;;9.70;4.70;;;;;3.50;98593.00;;;;108895;1270;41150;-62
2022/11/14 01:36:57;;;;;;;9.00;4.40;;;;;3.50;98593.80;;;;108891;1271;41194;-63
2022/11/14 01:39:46;;;;;;;9.90;4.70;;;;;3.50;98596.20;;;;108781;1270;42163;-62
2022/11/14 01:42:35;;;;;;;13.70;4.30;;;;;3.58;98595.60;;;;108821;1271;41163;-63
2022/11/14 01:45:51;;;;;;;10.30;4.90;;;;;3.52;98591.80;;;;108787;1266;41609;-62
2022/11/14 01:48:53;;;;;;;10.40;4.50;;;;;3.50;98589.00;;;;108647;1269;41161;-62
2022/11/14 01:51:51;;;;;;;8.80;4.30;;;;;3.50;98580.00;;;;108588;1271;41184;-62
2022/11/14 01:54:46;;;;;;;10.00;4.40;;;;;3.50;98580.20;;;;108634;1271;41149;-61
2022/11/14 01:57:43;;;;;;;8.40;4.30;;;;;3.50;98588.20;;;;108608;1270;41174;-62
2022/11/14 02:00:32;;;;;;;10.60;4.30;;;;;3.50;98581.80;;;;108597;1271;41295;-62
2022/11/14 02:03:22;;;;;;;8.80;4.30;;;;;3.50;98583.80;;;;108690;1271;41167;-62
2022/11/14 02:06:13;;;;;;;10.10;4.10;;;;;3.50;98581.00;;;;108876;1266;41229;-62
2022/11/14 02:09:05;;;;;;;9.60;4.20;;;;;3.50;98573.20;;;;108909;1271;41606;-62
2022/11/14 02:11:54;;;;;;;;;;;;;3.50;98578.00;;;;108900;1269;42103;-62
2022/11/14 02:14:45;;;;;;;8.90;4.20;;;;;3.40;98581.20;;;;108895;1271;41344;-62
2022/11/14 02:17:34;;;;;;;10.00;3.80;;;;;3.48;98578.80;;;;108856;1269;41706;-62
2022/11/14 02:20:30;;;;;;;9.30;3.90;;;;;3.50;98586.60;;;;108875;1271;41208;-62
2022/11/14 02:23:29;;;;;;;11.10;6.00;;;;;3.50;98582.80;;;;108862;1269;41143;-62
2022/11/14 02:26:20;;;;;;;24.40;6.20;;;;;3.32;98584.60;;;;108879;1267;42023;-62
2022/11/14 02:29:10;;;;;;;9.60;4.40;;;;;3.10;98579.40;;;;108818;1271;41373;-62
2022/11/14 02:32:01;;;;;;;9.40;4.00;;;;;3.04;98578.60;;;;108883;1271;41235;-61
2022/11/14 02:34:53;;;;;;;8.80;4.10;;;;;3.10;98578.80;;;;108897;1271;41176;-61
2022/11/14 02:37:43;;;;;;;9.30;4.10;;;;;3.10;98581.20;;;;108903;1270;41908;-61
2022/11/14 02:40:32;;;;;;;9.70;4.00;;;;;3.20;98575.80;;;;108860;1270;41155;-61
2022/11/14 02:43:20;;;;;;;15.40;4.00;;;;;3.20;98570.20;;;;108829;1271;41718;-61
2022/11/14 02:46:10;;;;;;;14.30;4.40;;;;;3.16;98565.40;;;;108845;1271;41277;-62
2022/11/14 02:48:59;;;;;;;11.60;4.50;;;;;3.10;98565.60;;;;108798;1267;41147;-62
2022/11/14 02:51:47;;;;;;;10.80;4.10;;;;;3.08;98572.00;;;;108884;1271;41722;-63
2022/11/14 02:54:36;;;;;;;11.00;4.00;;;;;3.00;98572.80;;;;108912;1271;41133;-62
2022/11/14 02:57:25;;;;;;;8.30;3.90;;;;;3.00;98574.40;;;;108736;1271;41191;-62
2022/11/14 03:00:14;;;;;;;11.20;4.60;;;;;3.00;98576.80;;;;108920;1271;41204;-62
2022/11/14 03:03:02;;;;;;;9.60;4.10;;;;;3.00;98579.40;;;;108922;1270;41223;-62
2022/11/14 03:05:52;;;;;;;11.10;4.40;;;;;3.00;98575.00;;;;108889;1271;41170;-62
2022/11/14 03:08:40;;;;;;;9.70;3.90;;;;;3.08;98575.40;;;;108817;1269;41614;-62
2022/11/14 03:11:30;;;;;;;9.60;4.00;;;;;3.08;98573.40;;;;108740;1270;41144;-62
2022/11/14 03:14:19;;;;;;;10.40;4.10;;;;;3.00;98574.40;;;;108870;1270;41618;-61
2022/11/14 03:17:08;;;;;;;7.60;3.40;;;;;3.00;98571.60;;;;108924;1271;41160;-61
2022/11/14 03:19:58;;;;;;;8.50;3.60;;;;;3.00;98573.60;;;;108901;1271;41173;-61
2022/11/14 03:22:47;;;;;;;9.10;3.90;;;;;3.08;98573.20;;;;108904;1271;42109;-61
2022/11/14 03:25:37;;;;;;;10.90;4.20;;;;;3.10;98574.20;;;;108784;1270;42320;-62
2022/11/14 03:28:26;;;;;;;9.30;4.10;;;;;3.10;98576.20;;;;108831;1271;41191;-61
2022/11/14 03:31:14;;;;;;;11.20;4.30;;;;;3.10;98578.00;;;;108880;1271;41147;-62
2022/11/14 03:34:03;;;;;;;7.80;3.50;;;;;3.10;98576.20;;;;108865;1270;41158;-62
2022/11/14 03:36:51;;;;;;;11.90;4.70;;;;;3.10;98574.20;;;;108945;1271;41146;-62
2022/11/14 03:39:39;;;;;;;10.90;3.90;;;;;3.10;98577.20;;;;108924;1270;41601;-61
2022/11/14 03:42:27;;;;;;;11.00;4.50;;;;;3.00;98578.00;;;;108866;1271;41625;-61
2022/11/14 03:45:16;;;;;;;8.40;4.00;;;;;2.96;98576.00;;;;108634;1269;41164;-62
2022/11/14 03:48:05;;;;;;;11.80;4.30;;;;;2.90;98569.40;;;;108942;1270;41240;-62
2022/11/14 03:50:54;;;;;;;9.70;4.20;;;;;2.90;98573.00;;;;108709;1271;41150;-62
2022/11/14 03:53:43;;;;;;;20.20;4.90;;;;;2.84;98573.80;;;;108813;1266;42154;-62
2022/11/14 03:56:32;;;;;;;11.60;4.20;;;;;2.82;98575.00;;;;108883;1270;42462;-61
2022/11/14 03:59:21;;;;;;;10.20;4.40;;;;;2.80;98568.80;;;;108904;1269;41146;-62
2022/11/14 04:02:10;;;;;;;31.20;5.30;;;;;2.80;98572.60;;;;108853;1267;41177;-62
2022/11/14 04:04:58;;;;;;;15.20;4.70;;;;;2.72;98569.80;;;;108806;1267;41256;-62
2022/11/14 04:07:47;;;;;;;10.20;4.00;;;;;2.70;98563.20;;;;108772;1271;41157;-62
2022/11/14 04:10:36;;;;;;;9.00;3.60;;;;;2.62;98566.40;;;;108849;1270;41162;-62
2022/11/14 04:13:24;;;;;;;10.70;3.90;;;;;2.60;98561.20;;;;108947;1271;41159;-62
2022/11/14 04:16:14;;;;;;;17.20;3.60;;;;;2.64;98558.20;;;;108843;1270;41687;-61
2022/11/14 04:19:02;;;;;;;7.50;3.50;;;;;2.70;98558.00;;;;108872;1271;41610;-61
2022/11/14 04:21:50;;;;;;;9.20;3.60;;;;;2.70;98558.40;;;;108954;1271;41889;-61
2022/11/14 04:24:39;;;;;;;7.90;3.70;;;;;2.70;98561.00;;;;108913;1270;41143;-62
2022/11/14 04:27:27;;;;;;;28.40;4.40;;;;;2.70;98564.60;;;;108854;1270;41144;-61
2022/11/14 04:30:16;;;;;;;8.70;3.80;;;;;2.60;98568.40;;;;108911;1270;41164;-62
2022/11/14 04:33:04;;;;;;;14.90;5.00;;;;;2.60;98566.80;;;;108857;1266;41156;-62
2022/11/14 04:35:52;;;;;;;25.80;4.60;;;;;2.58;98565.40;;;;108889;1270;41169;-63
2022/11/14 04:38:40;;;;;;;15.70;4.90;;;;;2.50;98575.00;;;;108655;1271;41617;-63
2022/11/14 04:41:28;;;;;;;16.90;4.90;;;;;2.40;98575.80;;;;108955;1266;41160;-62
2022/11/14 04:44:16;;;;;;;10.30;4.40;;;;;2.40;98565.40;;;;108642;1271;41985;-63
2022/11/14 04:47:04;;;;;;;12.80;4.50;;;;;2.40;98560.00;;;;108930;1270;41541;-61
2022/11/14 04:49:53;;;;;;;8.30;3.70;;;;;2.40;98558.00;;;;108895;1271;41658;-62
2022/11/14 04:52:41;;;;;;;11.00;4.50;;;;;2.40;98557.60;;;;108953;1271;41931;-62
2022/11/14 04:55:30;;;;;;;9.10;3.70;;;;;2.40;98557.00;;;;108835;1271;41897;-62
2022/11/14 04:58:18;;;;;;;34.20;4.60;;;;;2.40;98547.60;;;;108924;1270;41604;-62
2022/11/14 05:01:11;;;;;;;10.90;4.00;;;;;2.40;98553.00;;;;108949;1270;41163;-62
2022/11/14 05:03:59;;;;;;;8.30;3.40;;;;;2.30;98553.80;;;;108787;1271;41177;-62
2022/11/14 05:06:47;;;;;;;11.70;4.70;;;;;2.32;98556.40;;;;108943;1271;41131;-62
2022/11/14 05:09:35;;;;;;;19.60;9.00;;;;;2.32;98557.00;;;;108939;1271;42242;-62
2022/11/14 05:12:24;;;;;;;54.70;24.40;;;;;2.36;98555.40;;;;108649;1270;41217;-62
2022/11/14 05:15:11;;;;;;;43.50;22.30;;;;;2.40;98557.00;;;;108626;1270;41185;-62
2022/11/14 05:17:59;;;;;;;28.60;13.50;;;;;2.40;98558.00;;;;108587;1271;41821;-61
2022/11/14 05:20:47;;;;;;;20.70;7.30;;;;;2.40;98560.40;;;;108908;1270;41611;-62
2022/11/14 05:23:34;;;;;;;10.80;5.70;;;;;2.40;98566.20;;;;108943;1270;41626;-62
2022/11/14 05:26:22;;;;;;;12.30;4.50;;;;;2.40;98567.80;;;;108938;1269;41164;-61
2022/11/14 05:29:10;;;;;;;12.60;4.60;;;;;2.40;98565.40;;;;108888;1270;41162;-62
2022/11/14 05:31:59;;;;;;;20.60;4.20;;;;;2.36;98563.20;;;;108961;1271;42151;-62
2022/11/14 05:34:47;;;;;;;8.40;3.60;;;;;2.36;98567.20;;;;108915;1268;41408;-62
2022/11/14 05:37:35;;;;;;;9.10;3.50;;;;;2.40;98563.60;;;;108957;1271;41219;-63
2022/11/14 05:40:23;;;;;;;12.80;3.50;;;;;2.40;98563.00;;;;108947;1266;41135;-62
2022/11/14 05:43:11;;;;;;;9.60;3.90;;;;;2.40;98565.80;;;;108926;1270;42360;-62
2022/11/14 05:45:59;;;;;;;9.80;4.00;;;;;2.40;98566.40;;;;108922;1269;41148;-62
2022/11/14 05:48:47;;;;;;;14.40;4.00;;;;;2.40;98566.80;;;;108931;1263;41402;-62
2022/11/14 05:51:35;;;;;;;8.40;3.70;;;;;2.42;98567.40;;;;108909;1271;41154;-62
2022/11/14 05:54:22;;;;;;;13.20;5.60;;;;;2.50;98568.40;;;;108922;1270;41143;-63
2022/11/14 05:57:10;;;;;;;11.50;5.40;;;;;2.48;98569.20;;;;108930;1270;41148;-62
2022/11/14 05:59:58;;;;;;;12.50;4.70;;;;;2.50;98579.60;;;;108910;1270;41277;-61
2022/11/14 06:02:46;;;;;;;10.30;4.40;;;;;2.50;98580.60;;;;108901;1269;41685;-62
2022/11/14 06:05:35;;;;;;;18.40;4.70;;;;;2.50;98581.00;;;;108882;1271;41704;-61
2022/11/14 06:08:22;;;;;;;13.80;4.30;;;;;2.50;98577.40;;;;108916;1271;41151;-61
2022/11/14 06:11:12;;;;;;;9.60;4.50;;;;;2.52;98581.60;;;;108813;1271;41256;-61
2022/11/14 06:14:00;;;;;;;10.90;5.20;;;;;2.56;98592.60;;;;108610;1266;41820;-62
2022/11/14 06:16:50;;;;;;;11.40;5.30;;;;;2.50;98589.00;;;;108587;1271;41170;-62
2022/11/14 06:19:37;;;;;;;19.10;4.70;;;;;2.50;98585.20;;;;108567;1271;41243;-63
2022/11/14 06:22:24;;;;;;;9.50;4.50;;;;;2.50;98578.60;;;;108585;1270;41159;-62
2022/11/14 06:25:12;;;;;;;12.00;5.00;;;;;2.50;98582.00;;;;108565;1271;41236;-62
2022/11/14 06:27:59;;;;;;;11.30;5.50;;;;;2.54;98589.40;;;;108585;1271;41168;-62
2022/11/14 06:30:47;;;;;;;20.70;6.90;;;;;2.60;98594.20;;;;108595;1271;41362;-62
2022/11/14 06:33:36;;;;;;;35.20;8.50;;;;;2.60;98594.80;;;;108910;1268;41145;-62
2022/11/14 06:36:24;;;;;;;14.60;7.70;;;;;2.50;98593.00;;;;108895;1269;41633;-62
2022/11/14 06:39:11;;;;;;;16.30;7.00;;;;;2.50;98587.20;;;;108857;1270;41148;-61
2022/11/14 06:41:58;;;;;;;13.60;6.30;;;;;2.60;98587.80;;;;108613;1271;41622;-61
2022/11/14 06:44:45;;;;;;;11.90;5.60;;;;;2.60;98591.00;;;;108913;1267;41898;-62
2022/11/14 06:47:33;;;;;;;12.40;5.50;;;;;2.68;98587.60;;;;108944;1270;41239;-61
2022/11/14 06:50:20;;;;;;;14.50;4.90;;;;;2.70;98586.20;;;;108885;1270;41503;-61
2022/11/14 06:53:08;;;;;;;11.60;5.20;;;;;2.80;98590.00;;;;108889;1266;42891;-62
2022/11/14 06:56:06;;;;;;;15.80;6.30;;;;;2.82;98592.40;;;;108891;1270;41162;-62
2022/11/14 06:58:54;;;;;;;10.80;4.80;;;;;2.90;98590.00;;;;108910;1262;41524;-62
2022/11/14 07:01:42;;;;;;;13.50;6.20;;;;;2.90;98590.40;;;;108932;1263;41143;-62
2022/11/14 07:04:29;;;;;;;10.40;5.60;;;;;2.90;98593.80;;;;108853;1270;41697;-62
2022/11/14 07:07:17;;;;;;;12.90;5.70;;;;;2.90;98583.00;;;;108875;1270;41607;-62
2022/11/14 07:10:06;;;;;;;18.90;6.00;;;;;2.94;98573.40;;;;108849;1270;41164;-62
2022/11/14 07:12:54;;;;;;;16.10;6.50;;;;;3.00;98573.60;;;;108607;1271;41142;-61
2022/11/14 07:15:51;;;;;;;21.50;7.00;;;;;3.00;98573.20;;;;108371;1271;41140;-61
2022/11/14 07:18:39;;;;;;;19.30;5.50;;;;;2.98;98572.00;;;;108614;1270;41193;-61
2022/11/14 07:21:29;;;;;;;11.90;5.30;;;;;3.00;98571.80;;;;108624;1270;41569;-61
2022/11/14 07:24:16;;;;;;;14.60;5.40;;;;;3.00;98563.60;;;;108776;1271;41260;-61
2022/11/14 07:27:07;;;;;;;9.50;4.70;;;;;3.08;98566.80;;;;108733;1270;41241;-61
2022/11/14 07:29:55;;;;;;;11.60;5.20;;;;;3.10;98572.80;;;;108646;1271;41218;-63
2022/11/14 07:32:43;;;;;;;12.60;5.20;;;;;3.20;98575.80;;;;108660;1271;41347;-61
2022/11/14 07:35:30;;;;;;;11.70;5.60;;;;;3.30;98573.00;;;;108955;1271;41163;-61
2022/11/14 07:38:18;;;;;;;9.80;5.00;;;;;3.30;98576.20;;;;108615;1270;41246;-61
2022/11/14 07:41:06;;;;;;;12.30;6.60;;;;;3.36;98574.00;;;;108566;1270;41526;-61
2022/11/14 07:43:53;;;;;;;17.70;7.70;;;;;3.40;98565.80;;;;108578;1271;41142;-61
2022/11/14 07:46:41;;;;;;;19.20;7.70;;;;;3.42;98562.60;;;;108585;1269;41149;-61
2022/11/14 07:49:29;;;;;;;15.30;7.30;;;;;3.48;98561.20;;;;108574;1266;41164;-61
2022/11/14 07:52:16;;;;;;;14.30;6.40;;;;;3.50;98563.20;;;;108888;1262;41148;-61
2022/11/14 07:55:04;;;;;;;12.70;6.70;;;;;3.54;98557.20;;;;108871;1271;41171;-61
2022/11/14 07:57:54;;;;;;;11.00;5.60;;;;;3.60;98556.40;;;;108903;1270;41229;-61
2022/11/14 08:00:41;;;;;;;19.00;7.10;;;;;3.70;98553.00;;;;108878;1261;41235;-61
2022/11/14 08:03:32;;;;;;;12.20;5.70;;;;;3.80;98553.20;;;;108905;1270;41151;-62
2022/11/14 08:06:19;;;;;;;11.50;5.60;;;;;3.80;98547.00;;;;108911;1271;41900;-61
2022/11/14 08:09:06;;;;;;;12.40;6.40;;;;;3.80;98543.40;;;;108741;1271;42147;-61
2022/11/14 08:11:54;;;;;;;17.50;6.80;;;;;3.90;98538.40;;;;108780;1269;41238;-61
2022/11/14 08:14:41;;;;;;;15.00;7.40;;;;;3.90;98538.60;;;;108589;1266;41174;-61
2022/11/14 08:17:29;;;;;;;11.50;5.90;;;;;3.94;98543.80;;;;108624;1271;41193;-62
2022/11/14 08:20:17;;;;;;;10.00;5.10;;;;;4.00;98542.20;;;;108588;1270;41135;-61
2022/11/14 08:23:06;;;;;;;9.70;5.10;;;;;4.10;98541.60;;;;108582;1269;41231;-61
2022/11/14 08:25:54;;;;;;;11.60;5.50;;;;;4.20;98536.40;;;;108845;1271;41166;-61
2022/11/14 08:28:41;;;;;;;13.20;4.50;;;;;4.30;98528.20;;;;108900;1266;42024;-62
2022/11/14 08:31:29;;;;;;;10.30;4.80;;;;;4.30;98527.80;;;;108755;1271;41934;-61
2022/11/14 08:34:18;;;;;;;9.80;4.50;;;;;4.40;98527.20;;;;108890;1267;41602;-61
2022/11/14 08:37:06;;;;;;;10.90;5.10;;;;;4.52;98527.60;;;;108946;1270;41178;-60
2022/11/14 08:39:53;;;;;;;10.00;5.00;;;;;4.70;98523.20;;;;108921;1267;41541;-60
2022/11/14 08:42:41;;;;;;;10.60;5.90;;;;;4.80;98518.40;;;;108880;1262;41240;-61
2022/11/14 08:45:29;;;;;;;11.50;6.00;;;;;4.90;98519.20;;;;108906;1270;41149;-61
2022/11/14 08:48:16;;;;;;;12.00;5.50;;;;;5.00;98516.00;;;;108904;1262;41166;-61
2022/11/14 08:51:05;;;;;;;9.80;5.10;;;;;5.08;98508.60;;;;108953;1271;41321;-61
2022/11/14 08:53:52;;;;;;;11.00;5.40;;;;;5.10;98508.60;;;;108919;1270;41185;-61
2022/11/14 08:56:40;;;;;;;11.50;5.30;;;;;5.20;98510.60;;;;108715;1270;41917;-61
2022/11/14 08:59:28;;;;;;;10.20;5.00;;;;;5.30;98508.00;;;;108617;1259;41226;-61
2022/11/14 09:02:15;;;;;;;20.60;6.80;;;;;5.40;98499.20;;;;108578;1271;41611;-61
2022/11/14 09:05:03;;;;;;;13.70;6.30;;;;;5.46;98496.40;;;;108808;1270;41259;-61
2022/11/14 09:07:50;;;;;;;12.40;6.30;;;;;5.48;98492.40;;;;108912;1266;41626;-61
2022/11/14 09:10:40;;;;;;;13.40;6.70;;;;;5.50;98494.80;;;;108882;1270;42527;-60
2022/11/14 09:13:28;;;;;;;14.30;6.70;;;;;5.60;98490.60;;;;108908;1262;41703;-60
2022/11/14 09:16:15;;;;;;;15.80;7.40;;;;;5.60;98484.80;;;;108885;1270;42152;-61
2022/11/14 09:19:03;;;;;;;12.60;6.40;;;;;5.60;98480.00;;;;108689;1270;41600;-61
2022/11/14 09:21:52;;;;;;;10.40;5.00;;;;;5.70;98475.40;;;;108590;1264;42606;-61
2022/11/14 09:24:39;;;;;;;11.70;6.50;;;;;5.74;98473.60;;;;108586;1271;41184;-61
2022/11/14 09:27:27;;;;;;;13.00;4.90;;;;;5.80;98468.80;;;;108585;1267;41147;-61
2022/11/14 09:30:15;;;;;;;10.50;4.60;;;;;6.00;98466.20;;;;108547;1266;41624;-61
2022/11/14 09:33:04;;;;;;;9.50;3.80;;;;;6.10;98461.00;;;;108871;1270;41171;-61
2022/11/14 09:36:02;;;;;;;9.70;4.40;;;;;6.20;98455.80;;;;108614;1271;41245;-61
2022/11/14 09:38:50;;;;;;;10.80;5.40;;;;;6.30;98453.40;;;;108654;1263;41979;-61
2022/11/14 09:42:16;;;;;;;11.70;5.10;;;;;6.40;98456.80;;;;108889;1268;41236;-60
2022/11/14 09:45:10;;;;;;;12.00;5.70;;;;;6.60;98454.40;;;;108708;1269;41505;-61
2022/11/14 09:48:06;;;;;;;10.70;5.00;;;;;6.70;98448.60;;;;108690;1271;41177;-61
2022/11/14 09:51:15;;;;;;;11.20;5.00;;;;;6.80;98442.80;;;;108720;1262;41631;-61
2022/11/14 09:54:10;;;;;;;10.50;4.80;;;;;7.00;98441.60;;;;108588;1266;41144;-62
2022/11/14 09:56:58;;;;;;;11.10;4.80;;;;;7.10;98443.80;;;;108648;1271;41155;-61
2022/11/14 09:59:46;;;;;;;11.30;5.60;;;;;7.20;98434.20;;;;108603;1270;41219;-61
2022/11/14 10:02:38;;;;;;;10.50;4.90;;;;;7.20;98432.20;;;;108590;1261;41241;-61
2022/11/14 10:05:49;;;;;;;10.90;5.30;;;;;7.26;98421.40;;;;108600;1270;41468;-61
2022/11/14 10:08:37;;;;;;;14.60;6.80;;;;;7.30;98415.20;;;;108813;1266;42436;-61
2022/11/14 10:11:37;;;;;;;12.60;5.20;;;;;7.30;98412.60;;;;108859;1271;41612;-61
2022/11/14 10:14:34;;;;;;;;;;;;;7.40;98407.80;;;;108633;1270;41145;-61
2022/11/14 10:17:44;;;;;;;10.00;4.00;;;;;7.40;98409.40;;;;108843;1267;41917;-61
2022/11/14 10:21:01;;;;;;;8.20;3.70;;;;;7.68;98401.60;;;;108554;1270;41631;-61
2022/11/14 10:24:26;;;;;;;9.50;3.70;;;;;8.00;98400.20;;;;108478;1271;41166;-62
2022/11/14 10:27:27;;;;;;;10.30;4.60;;;;;8.40;98393.20;;;;108541;1269;41171;-62
2022/11/14 10:30:16;;;;;;;9.10;4.60;;;;;8.70;98392.20;;;;108863;1270;41139;-61
2022/11/14 10:33:27;;;;;;;11.70;5.10;;;;;9.00;98382.80;;;;108640;1271;42343;-62
2022/11/14 10:36:20;;;;;;;13.70;6.00;;;;;9.38;98373.60;;;;108622;1267;41145;-62
2022/11/14 10:39:31;;;;;;;11.30;5.40;;;;;10.14;98370.20;;;;108612;1271;41164;-62
2022/11/14 10:42:30;;;;;;;10.50;5.40;;;;;10.96;98359.80;;;;108588;1267;41146;-62
2022/11/14 10:45:35;;;;;;;10.70;5.30;;;;;12.28;98345.60;;;;108601;1271;41232;-60
2022/11/14 10:48:38;;;;;;;13.50;5.20;;;;;13.80;98344.20;;;;108617;1271;41697;-61
2022/11/14 10:51:28;;;;;;;11.90;5.70;;;;;15.12;98332.60;;;;108626;1266;41156;-62
2022/11/14 10:54:46;;;;;;;11.40;5.30;;;;;16.20;98330.60;;;;108907;1271;41240;-62
2022/11/14 10:57:34;;;;;;;9.90;4.80;;;;;16.94;98331.80;;;;108734;1271;42289;-62
2022/11/14 11:00:21;;;;;;;10.20;5.30;;;;;16.80;98324.40;;;;108546;1271;41252;-62
2022/11/14 11:03:09;;;;;;;10.30;5.20;;;;;17.18;98316.40;;;;108692;1266;41235;-63
2022/11/14 11:05:56;;;;;;;10.70;5.20;;;;;17.70;98319.40;;;;108893;1266;41134;-63
2022/11/14 11:12:00;;;;;;;11.10;5.00;;;;;18.32;98305.00;;;;108568;1266;41245;-62
2022/11/14 11:15:06;;;;;;;10.30;4.60;;;;;18.76;98303.20;;;;108891;1271;42092;-62
2022/11/14 11:17:55;;;;;;;10.20;4.90;;;;;19.34;98298.00;;;;108677;1271;41610;-62
2022/11/14 11:20:42;;;;;;;11.00;5.40;;;;;19.80;98292.60;;;;108571;1264;41165;-62
2022/11/14 11:23:30;;;;;;;11.00;5.20;;;;;20.26;98289.80;;;;108562;1271;41162;-62
2022/11/14 11:26:23;;;;;;;12.00;4.90;;;;;20.84;98287.20;;;;108579;1270;41700;-62
2022/11/14 11:29:15;;;;;;;9.10;4.50;;;;;21.36;98281.40;;;;108582;1271;41237;-62
2022/11/14 11:32:04;;;;;;;9.90;4.80;;;;;21.94;98275.20;;;;108823;1271;41211;-62
2022/11/14 11:34:51;;;;;;;12.70;6.70;;;;;22.46;98272.20;;;;108862;1271;42491;-63
2022/11/14 11:37:40;;;;;;;12.90;7.10;;;;;22.90;98270.20;;;;108759;1270;42249;-62
2022/11/14 11:40:28;;;;;;;14.70;7.40;;;;;23.30;98267.60;;;;108613;1269;41203;-62
2022/11/14 11:43:27;;;;;;;15.10;8.70;;;;;23.70;98268.60;;;;108589;1270;41139;-63
2022/11/14 11:46:39;;;;;;;19.20;10.80;;;;;23.88;98262.60;;;;108783;1271;42019;-63
2022/11/14 11:49:29;;;;;;;18.40;9.80;;;;;23.70;98253.40;;;;108658;1263;41172;-63
2022/11/14 11:52:23;;;;;;;19.70;10.80;;;;;23.80;98248.00;;;;108566;1270;41150;-63
2022/11/14 11:55:15;;;;;;;18.00;10.70;;;;;23.80;98246.20;;;;108587;1260;41287;-63
2022/11/14 11:58:02;;;;;;;17.70;10.60;;;;;23.46;98246.20;;;;108827;1270;41400;-63
2022/11/14 12:00:54;;;;;;;19.10;10.50;;;;;23.30;98244.20;;;;108855;1266;41227;-63
2022/11/14 12:03:51;;;;;;;18.70;10.50;;;;;23.40;98245.40;;;;108911;1270;41691;-62
2022/11/14 12:06:47;;;;;;;19.10;9.90;;;;;23.60;98246.80;;;;108863;1266;42488;-62
2022/11/14 12:09:39;;;;;;;22.00;11.80;;;;;23.80;98240.80;;;;108655;1263;41142;-62
2022/11/14 12:13:01;;;;;;;18.70;10.50;;;;;23.70;98243.40;;;;108537;1266;41998;-63
2022/11/14 12:16:06;;;;;;;21.10;11.60;;;;;23.60;98235.60;;;;108795;1263;41136;-63
2022/11/14 12:19:35;;;;;;;17.10;10.10;;;;;23.70;98239.40;;;;108566;1271;42065;-63
2022/11/14 12:22:42;;;;;;;18.90;10.70;;;;;24.00;98235.40;;;;108675;1266;41612;-62
2022/11/14 12:26:04;;;;;;;21.20;10.90;;;;;24.20;98238.00;;;;108892;1268;41186;-63
2022/11/14 12:29:26;;;;;;;18.10;10.50;;;;;24.30;98237.20;;;;108793;1271;41594;-63
2022/11/14 12:32:37;;;;;;;18.40;9.80;;;;;24.10;98230.80;;;;108935;1270;41231;-62
2022/11/14 12:35:35;;;;;;;19.40;10.60;;;;;24.10;98233.80;;;;108886;1271;41233;-62
2022/11/14 12:38:23;;;;;;;20.40;11.10;;;;;24.00;98229.80;;;;108804;1271;41168;-62
2022/11/14 12:41:12;;;;;;;19.70;10.90;;;;;24.00;98224.80;;;;108769;1269;41587;-62
2022/11/14 12:44:25;;;;;;;19.80;11.10;;;;;23.74;98218.60;;;;108772;1271;41197;-62
2022/11/14 12:47:18;;;;;;;17.40;10.50;;;;;23.70;98216.60;;;;108851;1271;41988;-62
2022/11/14 12:50:27;;;;;;;24.40;10.60;;;;;23.90;98213.00;;;;108866;1266;41685;-62
2022/11/14 12:53:35;;;;;;;21.50;12.00;;;;;23.78;98214.40;;;;108895;1270;42351;-63
2022/11/14 12:56:31;;;;;;;16.70;10.00;;;;;23.38;98212.20;;;;108882;1266;41269;-63
2022/11/14 12:59:25;;;;;;;23.50;12.70;;;;;23.02;98214.60;;;;108879;1266;42690;-63
2022/11/14 13:02:35;;;;;;;21.30;10.50;;;;;22.54;98214.60;;;;108843;1269;42555;-63
2022/11/14 13:05:34;;;;;;;18.10;9.70;;;;;22.18;98211.40;;;;108930;1271;41242;-63
2022/11/14 13:08:59;;;;;;;21.70;12.10;;;;;21.38;98217.60;;;;108892;1271;41400;-63
2022/11/14 13:21:46;;;;;;;23.40;11.80;;;;;17.88;98219.40;;;;108629;1271;41307;-62
2022/11/14 13:24:59;;;;;;;25.70;11.80;;;;;17.16;98220.00;;;;108951;1271;41245;-62
2022/11/14 13:27:47;;;;;;;22.90;12.40;;;;;16.80;98223.60;;;;108702;1266;41145;-62
2022/11/14 13:31:16;;;;;;;23.10;11.70;;;;;16.50;98221.60;;;;108591;1269;41163;-62
2022/11/14 13:34:29;;;;;;;21.40;12.20;;;;;16.24;98221.40;;;;108725;1271;42439;-62
2022/11/14 13:37:20;;;;;;;25.10;11.50;;;;;15.82;98218.40;;;;108690;1271;41746;-61
2022/11/14 13:40:34;;;;;;;24.10;12.90;;;;;15.50;98216.80;;;;108628;1270;41145;-62
2022/11/14 13:43:52;;;;;;;20.90;11.50;;;;;14.80;98222.20;;;;108918;1264;41164;-62
2022/11/14 13:46:39;;;;;;;24.00;12.30;;;;;14.30;98223.60;;;;108890;1266;41146;-62
2022/11/14 13:49:54;;;;;;;26.90;12.50;;;;;13.98;98221.00;;;;108891;1266;41372;-62
2022/11/14 13:52:45;;;;;;;26.50;12.60;;;;;13.70;98224.20;;;;108894;1271;41160;-62
2022/11/14 13:56:03;;;;;;;31.60;12.60;;;;;13.50;98231.20;;;;108573;1270;41161;-62
2022/11/14 13:59:00;;;;;;;25.00;14.40;;;;;13.20;98230.00;;;;108646;1262;41201;-62
2022/11/14 14:02:08;;;;;;;38.20;15.90;;;;;12.74;98243.60;;;;108562;1271;41160;-62
2022/11/14 14:05:07;;;;;;;30.30;14.60;;;;;12.30;98244.60;;;;108672;1270;41636;-62
2022/11/14 14:08:18;;;;;;;31.30;14.60;;;;;11.90;98245.00;;;;108874;1271;41887;-62
2022/11/14 14:11:42;;;;;;;30.00;14.00;;;;;11.60;98247.40;;;;108912;1266;41303;-61
2022/11/14 14:14:56;;;;;;;19.10;10.50;;;;;11.48;98244.20;;;;108919;1271;41710;-61
2022/11/14 14:18:18;;;;;;;15.70;7.70;;;;;11.30;98244.20;;;;108815;1269;41933;-61
2022/11/14 14:21:31;;;;;;;13.10;5.90;;;;;11.10;98244.80;;;;108798;1271;41175;-61
2022/11/14 14:24:36;;;;;;;14.10;6.80;;;;;11.00;98243.20;;;;108577;1271;41621;-60